createdAt,value
2023-02-16T00:01:26.108Z,14.63
2023-02-16T00:03:56.925Z,14.70
2023-02-16T00:06:25.775Z,13.80
2023-02-16T00:08:55.169Z,13.55
2023-02-16T00:11:45.406Z,10.65
2023-02-16T00:14:14.213Z,10.82
2023-02-16T00:16:42.674Z,12.50
2023-02-16T00:19:19.978Z,9.05
2023-02-16T00:21:47.977Z,10.43
2023-02-16T00:24:16.331Z,10.82
2023-02-16T00:26:44.786Z,10.45
2023-02-16T00:29:21.870Z,9.38
2023-02-16T00:31:50.092Z,11.77
2023-02-16T00:34:30.096Z,10.77
2023-02-16T00:37:00.045Z,9.98
2023-02-16T00:39:28.541Z,11.88
2023-02-16T00:41:58.724Z,14.98
2023-02-16T00:44:34.672Z,13.10
2023-02-16T00:47:05.205Z,14.98
2023-02-16T00:49:34.456Z,15.60
2023-02-16T00:52:02.896Z,11.82
2023-02-16T00:54:32.031Z,11.07
2023-02-16T00:57:00.138Z,10.00
2023-02-16T00:59:28.297Z,11.15
2023-02-16T01:01:57.440Z,12.85
2023-02-16T01:04:25.597Z,14.13
2023-02-16T01:07:12.217Z,14.38
2023-02-16T01:09:57.781Z,15.35
2023-02-16T01:12:25.674Z,10.63
2023-02-16T01:14:55.934Z,10.57
2023-02-16T01:17:24.717Z,11.20
2023-02-16T01:19:52.634Z,8.65
2023-02-16T01:22:21.866Z,8.93
2023-02-16T01:24:49.921Z,9.45
2023-02-16T01:27:17.793Z,9.73
2023-02-16T01:29:45.704Z,10.20
2023-02-16T01:32:14.320Z,10.57
2023-02-16T01:34:42.616Z,8.68
2023-02-16T01:37:15.977Z,9.43
2023-02-16T01:39:45.319Z,9.93
2023-02-16T01:42:28.901Z,9.40
2023-02-16T01:45:00.432Z,9.93
2023-02-16T01:47:37.843Z,10.40
2023-02-16T01:50:16.943Z,8.95
2023-02-16T01:52:48.794Z,9.20
2023-02-16T01:55:23.267Z,10.18
2023-02-16T01:57:53.224Z,10.57
2023-02-16T02:00:29.334Z,10.32
2023-02-16T02:03:20.467Z,10.35
2023-02-16T02:05:48.729Z,9.55
2023-02-16T02:08:24.923Z,10.02
2023-02-16T02:11:04.418Z,10.05
2023-02-16T02:13:40.081Z,10.50
2023-02-16T02:16:09.149Z,8.98
2023-02-16T02:18:37.060Z,10.02
2023-02-16T02:21:40.964Z,9.73
2023-02-16T02:24:50.080Z,10.35
2023-02-16T02:27:23.620Z,9.33
2023-02-16T02:30:21.174Z,9.73
2023-02-16T02:33:14.632Z,9.38
2023-02-16T02:35:52.223Z,10.52
2023-02-16T02:38:27.470Z,12.27
2023-02-16T02:41:05.227Z,10.13
2023-02-16T02:43:39.765Z,10.40
2023-02-16T02:46:12.123Z,9.43
2023-02-16T02:48:40.227Z,11.23
2023-02-16T02:51:33.620Z,11.07
2023-02-16T02:54:21.490Z,11.43
2023-02-16T02:57:11.624Z,11.70
2023-02-16T03:00:00.900Z,10.73
2023-02-16T03:02:31.088Z,12.20
2023-02-16T03:05:00.597Z,11.48
2023-02-16T03:07:43.992Z,11.70
2023-02-16T03:10:26.134Z,12.23
2023-02-16T03:12:54.198Z,11.23
2023-02-16T03:15:26.209Z,10.65
2023-02-16T03:18:14.819Z,11.15
2023-02-16T03:21:01.744Z,11.40
2023-02-16T03:23:47.975Z,12.07
2023-02-16T03:26:34.557Z,11.73
2023-02-16T03:29:21.969Z,12.00
2023-02-16T03:31:53.679Z,11.32
2023-02-16T03:34:22.778Z,11.23
2023-02-16T03:36:53.692Z,12.82
2023-02-16T03:39:22.107Z,13.25
2023-02-16T03:41:52.358Z,10.95
2023-02-16T03:44:21.064Z,10.95
2023-02-16T03:46:50.095Z,10.07
2023-02-16T03:49:20.354Z,10.30
2023-02-16T03:51:48.536Z,10.70
2023-02-16T03:54:16.394Z,10.02
2023-02-16T03:56:44.297Z,10.77
2023-02-16T03:59:12.196Z,10.57
2023-02-16T04:01:40.110Z,10.38
2023-02-16T04:04:08.041Z,10.45
2023-02-16T04:06:37.304Z,10.20
2023-02-16T04:09:05.323Z,10.35
2023-02-16T04:11:51.036Z,10.43
2023-02-16T04:14:19.383Z,11.55
2023-02-16T04:16:47.340Z,11.68
2023-02-16T04:19:15.230Z,11.30
2023-02-16T04:21:44.427Z,11.07
2023-02-16T04:24:12.323Z,10.43
2023-02-16T04:26:40.189Z,10.45
2023-02-16T04:29:08.075Z,11.15
2023-02-16T04:31:36.078Z,11.80
2023-02-16T04:34:04.011Z,10.85
2023-02-16T04:36:32.277Z,10.98
2023-02-16T04:39:01.781Z,10.75
2023-02-16T04:41:29.649Z,11.15
2023-02-16T04:43:57.543Z,10.73
2023-02-16T04:46:25.516Z,10.73
2023-02-16T04:48:53.524Z,10.98
2023-02-16T04:51:21.391Z,10.63
2023-02-16T04:53:49.270Z,11.73
2023-02-16T04:56:18.537Z,10.73
2023-02-16T04:58:46.454Z,12.52
2023-02-16T05:01:21.226Z,11.05
2023-02-16T05:03:49.732Z,11.48
2023-02-16T05:06:18.146Z,11.23
2023-02-16T05:08:46.481Z,11.35
2023-02-16T05:11:32.450Z,11.73
2023-02-16T05:14:27.792Z,12.20
2023-02-16T05:16:55.649Z,12.13
2023-02-16T05:19:23.512Z,11.52
2023-02-16T05:21:51.389Z,12.02
2023-02-16T05:24:19.290Z,11.95
2023-02-16T05:26:47.121Z,11.82
2023-02-16T05:29:16.357Z,12.38
2023-02-16T05:31:44.302Z,11.65
2023-02-16T05:34:12.275Z,12.80
2023-02-16T05:36:40.184Z,11.02
2023-02-16T05:39:08.075Z,12.35
2023-02-16T05:41:35.945Z,12.30
2023-02-16T05:44:05.320Z,12.45
2023-02-16T05:46:37.585Z,11.70
2023-02-16T05:49:06.293Z,14.00
2023-02-16T05:51:34.315Z,12.70
2023-02-16T05:54:02.643Z,12.13
2023-02-16T05:56:31.651Z,12.95
2023-02-16T05:59:00.126Z,12.90
2023-02-16T06:01:28.787Z,12.38
2023-02-16T06:03:58.034Z,11.85
2023-02-16T06:06:25.951Z,11.88
2023-02-16T06:08:53.847Z,11.48
2023-02-16T06:11:39.742Z,12.05
2023-02-16T06:14:09.644Z,12.13
2023-02-16T06:16:38.979Z,12.73
2023-02-16T06:19:08.874Z,12.38
2023-02-16T06:21:37.432Z,12.68
2023-02-16T06:24:06.710Z,14.73
2023-02-16T06:26:35.432Z,12.75
2023-02-16T06:29:03.524Z,12.10
2023-02-16T06:31:32.170Z,12.70
2023-02-16T06:34:03.708Z,13.40
2023-02-16T06:36:34.016Z,12.85
2023-02-16T06:39:01.931Z,12.90
2023-02-16T06:41:35.465Z,12.73
2023-02-16T06:44:04.909Z,12.90
2023-02-16T06:46:32.843Z,13.02
2023-02-16T06:49:01.611Z,13.27
2023-02-16T06:51:32.062Z,12.40
2023-02-16T06:54:00.224Z,11.82
2023-02-16T06:56:28.102Z,12.52
2023-02-16T06:58:55.994Z,12.77
2023-02-16T07:01:25.884Z,13.20
2023-02-16T07:03:55.127Z,13.60
2023-02-16T07:06:24.151Z,12.57
2023-02-16T07:08:54.184Z,12.38
2023-02-16T07:11:22.553Z,13.48
2023-02-16T07:13:50.746Z,14.27
2023-02-16T07:16:18.680Z,13.18
2023-02-16T07:18:47.393Z,13.15
2023-02-16T07:21:16.025Z,14.05
2023-02-16T07:23:44.275Z,12.90
2023-02-16T07:26:13.560Z,13.50
2023-02-16T07:28:41.490Z,13.15
2023-02-16T07:31:11.487Z,13.85
2023-02-16T07:33:40.210Z,13.00
2023-02-16T07:36:09.828Z,13.73
2023-02-16T07:38:38.454Z,13.48
2023-02-16T07:41:09.513Z,13.52
2023-02-16T07:43:42.649Z,14.15
2023-02-16T07:46:10.821Z,13.32
2023-02-16T07:48:38.746Z,13.93
2023-02-16T07:51:07.329Z,13.70
2023-02-16T07:53:35.511Z,13.50
2023-02-16T07:56:03.401Z,14.07
2023-02-16T07:58:31.295Z,13.27
2023-02-16T08:01:08.710Z,13.35
2023-02-16T08:03:36.589Z,13.07
2023-02-16T08:06:05.655Z,13.57
2023-02-16T08:08:33.940Z,12.27
2023-02-16T08:11:01.945Z,13.35
2023-02-16T08:13:29.880Z,12.63
2023-02-16T08:15:57.795Z,13.40
2023-02-16T08:18:27.072Z,13.70
2023-02-16T08:21:04.201Z,13.60
2023-02-16T08:23:32.571Z,11.52
2023-02-16T08:26:00.472Z,13.25
2023-02-16T08:28:29.499Z,11.80
2023-02-16T08:30:57.430Z,13.43
2023-02-16T08:33:26.673Z,13.23
2023-02-16T08:35:54.533Z,12.45
2023-02-16T08:38:22.789Z,12.18
2023-02-16T08:40:51.340Z,12.35
2023-02-16T08:43:19.365Z,11.13
2023-02-16T08:45:48.053Z,10.27
2023-02-16T08:48:16.718Z,11.55
2023-02-16T08:50:53.252Z,11.30
2023-02-16T08:53:21.659Z,10.68
2023-02-16T08:55:53.305Z,11.55
2023-02-16T08:58:21.199Z,10.23
2023-02-16T09:00:49.754Z,10.10
2023-02-16T09:03:18.992Z,10.07
2023-02-16T09:05:48.534Z,10.10
2023-02-16T09:08:16.578Z,10.55
2023-02-16T09:10:44.927Z,10.30
2023-02-16T09:13:14.966Z,10.00
2023-02-16T09:15:43.208Z,8.65
2023-02-16T09:18:12.684Z,10.32
2023-02-16T09:20:42.708Z,10.00
2023-02-16T09:23:13.491Z,9.65
2023-02-16T09:25:42.464Z,9.45
2023-02-16T09:28:11.964Z,9.35
2023-02-16T09:30:40.444Z,9.20
2023-02-16T09:33:08.572Z,8.48
2023-02-16T09:35:39.001Z,9.00
2023-02-16T09:38:08.658Z,8.88
2023-02-16T09:40:39.214Z,8.77
2023-02-16T09:43:15.289Z,8.35
2023-02-16T09:45:48.438Z,8.77
2023-02-16T09:48:25.513Z,8.38
2023-02-16T09:50:55.375Z,8.50
2023-02-16T09:53:31.853Z,7.97
2023-02-16T09:56:10.852Z,8.48
2023-02-16T09:58:44.786Z,8.00
2023-02-16T10:01:21.431Z,7.32
2023-02-16T10:03:59.470Z,7.85
2023-02-16T10:06:49.437Z,7.63
2023-02-16T10:09:19.579Z,8.40
2023-02-16T10:11:54.408Z,7.88
2023-02-16T10:14:31.654Z,7.63
2023-02-16T10:17:07.729Z,8.57
2023-02-16T10:19:40.454Z,8.02
2023-02-16T10:22:15.072Z,8.20
2023-02-16T10:24:53.666Z,8.07
2023-02-16T10:27:23.689Z,8.00
2023-02-16T10:29:51.628Z,8.70
2023-02-16T10:32:29.265Z,8.77
2023-02-16T10:35:05.355Z,9.23
2023-02-16T10:37:59.220Z,7.25
2023-02-16T10:40:36.242Z,7.13
2023-02-16T10:43:14.109Z,7.50
2023-02-16T10:45:49.636Z,8.00
2023-02-16T10:48:21.021Z,7.63
2023-02-16T10:50:58.655Z,7.18
2023-02-16T10:53:40.098Z,6.40
2023-02-16T10:56:43.789Z,6.53
2023-02-16T10:59:18.830Z,6.28
2023-02-16T11:01:50.602Z,6.60
2023-02-16T11:04:32.373Z,6.50
2023-02-16T11:07:05.068Z,7.15
2023-02-16T11:09:33.571Z,7.50
2023-02-16T11:12:01.679Z,6.65
2023-02-16T11:14:32.815Z,6.30
2023-02-16T11:17:07.398Z,6.47
2023-02-16T11:19:36.306Z,6.18
2023-02-16T11:22:04.228Z,6.57
2023-02-16T11:24:33.730Z,5.55
2023-02-16T11:27:05.254Z,6.43
2023-02-16T11:29:35.460Z,6.35
2023-02-16T11:32:08.314Z,5.95
2023-02-16T11:34:38.133Z,5.45
2023-02-16T11:37:14.308Z,5.60
2023-02-16T11:39:50.941Z,6.20
2023-02-16T11:42:30.152Z,7.05
2023-02-16T11:45:01.101Z,5.88
2023-02-16T11:47:32.446Z,5.93
2023-02-16T11:50:20.267Z,4.88
2023-02-16T11:52:49.746Z,5.63
2023-02-16T11:55:26.854Z,5.53
2023-02-16T11:57:56.989Z,5.75
2023-02-16T12:00:27.545Z,5.30
2023-02-16T12:03:16.741Z,4.10
2023-02-16T12:05:57.380Z,4.90
2023-02-16T12:08:41.143Z,4.38
2023-02-16T12:11:25.398Z,3.88
2023-02-16T12:14:04.492Z,3.72
2023-02-16T12:16:40.843Z,4.00
2023-02-16T12:19:19.050Z,5.30
2023-02-16T12:21:50.489Z,3.80
2023-02-16T12:24:37.218Z,4.88
2023-02-16T12:27:10.852Z,4.68
2023-02-16T12:29:45.449Z,4.28
2023-02-16T12:32:34.732Z,4.47
2023-02-16T12:35:17.053Z,5.03
2023-02-16T12:37:48.440Z,4.57
2023-02-16T12:40:28.666Z,3.65
2023-02-16T12:43:04.749Z,3.28
2023-02-16T12:45:36.604Z,4.05
2023-02-16T12:48:20.679Z,3.80
2023-02-16T12:50:52.744Z,4.93
2023-02-16T12:53:27.642Z,4.22
2023-02-16T12:56:00.166Z,4.10
2023-02-16T12:58:33.056Z,3.72
2023-02-16T13:01:05.513Z,4.40
2023-02-16T13:03:40.170Z,4.10
2023-02-16T13:06:18.667Z,3.10
2023-02-16T13:08:52.390Z,3.10
2023-02-16T13:11:24.445Z,3.42
2023-02-16T13:13:57.118Z,3.53
2023-02-16T13:16:42.213Z,3.00
2023-02-16T13:19:14.199Z,3.00
2023-02-16T13:22:08.308Z,2.47
2023-02-16T13:24:51.466Z,2.60
2023-02-16T13:27:29.974Z,3.03
2023-02-16T13:30:23.046Z,2.60
2023-02-16T13:33:06.501Z,2.28
2023-02-16T13:36:27.978Z,2.50
2023-02-16T13:39:24.038Z,2.35
2023-02-16T13:42:20.154Z,2.47
2023-02-16T13:44:51.757Z,2.60
2023-02-16T13:47:26.758Z,2.40
2023-02-16T13:49:59.667Z,2.20
2023-02-16T13:52:33.467Z,2.78
2023-02-16T13:55:03.229Z,2.50
2023-02-16T13:57:58.156Z,2.45
2023-02-16T14:00:31.547Z,2.28
2023-02-16T14:03:02.254Z,2.20
2023-02-16T14:05:34.191Z,2.58
2023-02-16T14:08:24.836Z,2.70
2023-02-16T14:11:05.652Z,3.33
2023-02-16T14:13:45.237Z,2.97
2023-02-16T14:16:27.098Z,2.90
2023-02-16T14:18:58.879Z,3.30
2023-02-16T14:21:33.108Z,2.78
2023-02-16T14:24:04.017Z,2.90
2023-02-16T14:26:33.175Z,3.05
2023-02-16T14:29:12.542Z,3.33
2023-02-16T14:31:48.363Z,3.00
2023-02-16T14:34:21.494Z,3.33
2023-02-16T14:37:27.803Z,3.03
2023-02-16T14:40:12.273Z,3.53
2023-02-16T14:42:48.046Z,2.78
2023-02-16T14:45:38.531Z,3.42
2023-02-16T14:48:19.141Z,3.80
2023-02-16T14:51:04.846Z,3.30
2023-02-16T14:54:11.969Z,3.20
2023-02-16T14:56:43.003Z,3.25
2023-02-16T14:59:27.466Z,4.30
2023-02-16T15:01:55.785Z,3.08
2023-02-16T15:04:30.795Z,3.40
2023-02-16T15:07:03.125Z,2.67
2023-02-16T15:09:33.410Z,3.22
2023-02-16T15:12:23.475Z,3.08
2023-02-16T15:14:55.149Z,3.13
2023-02-16T15:17:29.881Z,3.40
2023-02-16T15:20:04.072Z,3.28
2023-02-16T15:22:32.549Z,3.38
2023-02-16T15:25:03.363Z,3.13
2023-02-16T15:27:33.887Z,3.85
2023-02-16T15:30:20.399Z,3.97
2023-02-16T15:32:54.207Z,2.95
2023-02-16T15:35:33.785Z,3.15
2023-02-16T15:38:10.794Z,3.30
2023-02-16T15:40:38.766Z,3.17
2023-02-16T15:43:23.694Z,3.42
2023-02-16T15:45:53.799Z,3.58
2023-02-16T15:48:25.452Z,3.40
2023-02-16T15:50:55.425Z,3.50
2023-02-16T15:53:27.839Z,3.85
2023-02-16T15:55:56.218Z,3.22
2023-02-16T15:58:27.898Z,4.50
2023-02-16T16:00:55.854Z,3.15
2023-02-16T16:03:23.936Z,3.45
2023-02-16T16:05:59.766Z,3.63
2023-02-16T16:08:29.619Z,3.80
2023-02-16T16:10:57.868Z,3.55
2023-02-16T16:13:30.894Z,3.38
2023-02-16T16:16:01.952Z,3.47
2023-02-16T16:18:50.244Z,4.20
2023-02-16T16:21:24.475Z,3.88
2023-02-16T16:24:01.125Z,3.42
2023-02-16T16:26:32.197Z,4.22
2023-02-16T16:29:01.893Z,4.35
2023-02-16T16:31:42.532Z,4.20
2023-02-16T16:34:16.029Z,4.57
2023-02-16T16:36:53.278Z,3.90
2023-02-16T16:39:26.435Z,4.17
2023-02-16T16:42:20.100Z,4.13
2023-02-16T16:45:01.780Z,4.57
2023-02-16T16:47:33.504Z,3.78
2023-02-16T16:50:04.301Z,3.70
2023-02-16T16:52:41.566Z,4.03
2023-02-16T16:55:24.875Z,4.03
2023-02-16T16:57:54.913Z,3.80
2023-02-16T17:00:25.593Z,4.03
2023-02-16T17:02:53.796Z,3.63
2023-02-16T17:05:22.099Z,3.65
2023-02-16T17:07:51.674Z,3.85
2023-02-16T17:10:21.315Z,3.95
2023-02-16T17:12:52.648Z,4.47
2023-02-16T17:15:36.701Z,4.18
2023-02-16T17:18:05.714Z,3.83
2023-02-16T17:20:34.113Z,4.53
2023-02-16T17:23:04.669Z,3.55
2023-02-16T17:25:36.063Z,4.07
2023-02-16T17:28:04.877Z,3.50
2023-02-16T17:30:35.263Z,4.35
2023-02-16T17:33:04.048Z,4.35
2023-02-16T17:35:32.602Z,4.13
2023-02-16T17:38:06.975Z,3.63
2023-02-16T17:40:35.128Z,4.50
2023-02-16T17:43:03.090Z,4.22
2023-02-16T17:45:31.034Z,3.85
2023-02-16T17:48:00.345Z,4.40
2023-02-16T17:50:30.242Z,4.00
2023-02-16T17:52:58.114Z,4.45
2023-02-16T17:55:26.522Z,4.43
2023-02-16T17:57:55.724Z,4.28
2023-02-16T18:00:23.714Z,4.65
2023-02-16T18:02:51.624Z,4.57
2023-02-16T18:05:20.818Z,5.25
2023-02-16T18:07:48.691Z,4.95
2023-02-16T18:10:33.071Z,5.20
2023-02-16T18:13:01.021Z,4.78
2023-02-16T18:15:29.153Z,4.43
2023-02-16T18:17:57.352Z,3.97
2023-02-16T18:20:27.591Z,4.95
2023-02-16T18:22:55.487Z,4.38
2023-02-16T18:25:23.770Z,5.10
2023-02-16T18:27:51.680Z,5.03
2023-02-16T18:30:19.640Z,4.57
2023-02-16T18:32:47.666Z,4.78
2023-02-16T18:35:17.163Z,4.45
2023-02-16T18:37:47.704Z,4.55
2023-02-16T18:40:17.782Z,5.03
2023-02-16T18:42:45.949Z,5.03
2023-02-16T18:45:13.999Z,5.25
2023-02-16T18:47:42.609Z,5.03
2023-02-16T18:50:11.614Z,5.13
2023-02-16T18:52:42.322Z,5.20
2023-02-16T18:55:11.753Z,5.53
2023-02-16T18:57:39.958Z,5.10
2023-02-16T19:00:11.141Z,4.85
2023-02-16T19:02:40.842Z,5.63
2023-02-16T19:05:10.333Z,5.38
2023-02-16T19:07:38.388Z,4.53
2023-02-16T19:10:08.398Z,5.25
2023-02-16T19:12:37.730Z,6.05
2023-02-16T19:15:06.556Z,5.15
2023-02-16T19:17:34.740Z,6.20
2023-02-16T19:20:02.706Z,5.43
2023-02-16T19:22:30.586Z,5.22
2023-02-16T19:24:58.461Z,5.22
2023-02-16T19:27:26.325Z,5.85
2023-02-16T19:29:55.564Z,5.03
2023-02-16T19:32:23.471Z,4.47
2023-02-16T19:34:51.354Z,5.00
2023-02-16T19:37:19.329Z,4.18
2023-02-16T19:39:47.199Z,5.60
2023-02-16T19:42:15.114Z,4.93
2023-02-16T19:44:43.169Z,4.78
2023-02-16T19:47:12.422Z,5.40
2023-02-16T19:49:40.435Z,4.32
2023-02-16T19:52:08.312Z,5.13
2023-02-16T19:54:36.221Z,4.78
2023-02-16T19:57:04.860Z,5.07
2023-02-16T19:59:33.401Z,4.35
2023-02-16T20:02:01.469Z,4.72
2023-02-16T20:04:30.746Z,5.25
2023-02-16T20:06:58.646Z,5.00
2023-02-16T20:09:26.545Z,5.65
2023-02-16T20:11:54.436Z,5.30
2023-02-16T20:14:22.318Z,5.03
2023-02-16T20:16:51.815Z,4.50
2023-02-16T20:19:20.142Z,5.65
2023-02-16T20:21:49.614Z,4.97
2023-02-16T20:24:18.067Z,4.47
2023-02-16T20:26:49.035Z,4.55
2023-02-16T20:29:17.118Z,4.70
2023-02-16T20:31:49.870Z,4.22
2023-02-16T20:34:19.164Z,4.97
2023-02-16T20:36:47.159Z,5.28
2023-02-16T20:39:16.713Z,4.43
2023-02-16T20:41:44.871Z,4.65
2023-02-16T20:44:13.712Z,4.43
2023-02-16T20:46:42.332Z,4.60
2023-02-16T20:49:10.746Z,5.30
2023-02-16T20:51:38.962Z,5.22
2023-02-16T20:54:06.935Z,5.00
2023-02-16T20:56:36.192Z,5.43
2023-02-16T20:59:04.777Z,4.40
2023-02-16T21:01:37.989Z,5.18
2023-02-16T21:04:07.887Z,4.80
2023-02-16T21:06:36.393Z,5.00
2023-02-16T21:09:05.000Z,4.18
2023-02-16T21:11:32.895Z,4.85
2023-02-16T21:14:02.400Z,4.82
2023-02-16T21:16:30.489Z,4.72
2023-02-16T21:18:58.487Z,5.28
2023-02-16T21:21:26.453Z,4.32
2023-02-16T21:23:55.218Z,4.95
2023-02-16T21:26:25.485Z,5.68
2023-02-16T21:28:54.277Z,4.70
2023-02-16T21:31:25.332Z,4.88
2023-02-16T21:33:54.095Z,4.93
2023-02-16T21:36:24.591Z,4.53
2023-02-16T21:38:53.033Z,5.00
2023-02-16T21:41:24.549Z,6.28
2023-02-16T21:43:58.062Z,4.82
2023-02-16T21:46:28.372Z,4.30
2023-02-16T21:48:57.319Z,4.63
2023-02-16T21:51:26.655Z,4.40
2023-02-16T21:53:55.153Z,4.55
2023-02-16T21:56:30.461Z,4.68
2023-02-16T21:58:59.018Z,4.82
2023-02-16T22:01:30.773Z,4.40
2023-02-16T22:04:00.308Z,5.05
2023-02-16T22:06:30.111Z,4.28
2023-02-16T22:08:58.001Z,5.05
2023-02-16T22:11:26.151Z,4.35
2023-02-16T22:13:55.724Z,4.05
2023-02-16T22:16:24.229Z,4.45
2023-02-16T22:18:57.298Z,4.30
2023-02-16T22:21:25.641Z,4.72
2023-02-16T22:23:53.576Z,4.10
2023-02-16T22:26:24.348Z,4.63
2023-02-16T22:28:52.670Z,4.50
2023-02-16T22:31:21.586Z,4.50
2023-02-16T22:33:49.682Z,4.68
2023-02-16T22:36:18.880Z,4.57
2023-02-16T22:38:46.825Z,4.47
2023-02-16T22:41:14.691Z,5.07
2023-02-16T22:43:42.699Z,4.55
2023-02-16T22:46:15.805Z,4.40
2023-02-16T22:48:45.182Z,5.38
2023-02-16T22:51:14.986Z,5.18
2023-02-16T22:53:44.190Z,5.03
2023-02-16T22:56:15.237Z,4.45
2023-02-16T22:58:43.192Z,5.38
2023-02-16T23:01:13.355Z,4.60
2023-02-16T23:03:41.623Z,4.30
2023-02-16T23:06:14.580Z,4.75
2023-02-16T23:08:44.168Z,4.68
2023-02-16T23:11:12.782Z,4.25
2023-02-16T23:13:40.739Z,4.93
2023-02-16T23:16:11.758Z,5.13
2023-02-16T23:18:40.126Z,5.20
2023-02-16T23:21:09.781Z,7.75
2023-02-16T23:23:37.898Z,5.78
2023-02-16T23:26:08.490Z,4.97
2023-02-16T23:28:37.916Z,5.50
2023-02-16T23:31:06.199Z,6.53
2023-02-16T23:33:34.726Z,5.28
2023-02-16T23:36:02.917Z,4.93
2023-02-16T23:38:31.038Z,5.32
2023-02-16T23:40:59.985Z,5.20
2023-02-16T23:43:29.627Z,4.47
2023-02-16T23:45:58.027Z,6.00
2023-02-16T23:48:25.914Z,4.78
2023-02-16T23:50:54.576Z,5.55
2023-02-16T23:53:24.661Z,5.60
2023-02-16T23:55:59.146Z,5.70
2023-02-16T23:58:29.781Z,4.60
